South Collingham, United Kingdom
Current Conditions -  °F | °C
As of 12:12 AM on Thursday 29 Jan 2015 (Local Time) from EGXW Reporting Station
Snow Showers Snow Showers  
Wind Chill: 22°   Ceiling: 1800
Heat Index: 34°   Visibility: 5mi
Dew Point: 32°   Wind: 22mph
Humidity: 93%   Direction: 260°W
Pressure: 29.26"   Gusts: 35mph
Location:  53.13°N, 0.77°W
Report Text: EGXW 290012Z 26019G30KT 8000 3000S SHSN FEW004 BKN018 01/M00 Q0991 YLO1
Loading
Personal Weather Stations






























Interactive Weather Map New forecast layout! Learn more

10-Day Weather Forecast

Advertisements
Track Severe Weather on mobile